Knox, North Dakota
Current Conditions -  °F | °C
As of 11:55 AM on Thursday 30 Oct 2014 (Local Time) from KRUG Reporting Station
Scattered Clouds Scattered Clouds  
Wind Chill: 22°   Ceiling: Unl
Heat Index: 32°   Visibility: 10mi
Dew Point: 27°   Wind: 14mph
Humidity: 80%   Direction: 360°N
Pressure: 30.39"   Gusts: 21mph
Location:  48.34°N, 99.69°W
Report Text: KRUG 301655Z AUTO 36012G18KT 10SM SCT019 00/M03 A3039 RMK AO2
Loading
Personal Weather Stations






























Interactive Weather Map
Tropical Storm Tracking
New forecast layout! Learn more

10-Day Weather Forecast

Advertisements
Track Severe Weather on mobile